sensor_id;sensor_type;location;lat;lon;timestamp;pressure;altitude;pressure_sealevel;temperature;humidity
15678;BME280;7939;50.814;6.368;2023-03-30T00:01:10;99092.66;;;15.85;53.42
15678;BME280;7939;50.814;6.368;2023-03-30T00:03:39;99093.56;;;15.84;53.88
15678;BME280;7939;50.814;6.368;2023-03-30T00:06:07;99095.25;;;15.85;53.54
15678;BME280;7939;50.814;6.368;2023-03-30T00:08:35;99094.44;;;15.83;53.70
15678;BME280;7939;50.814;6.368;2023-03-30T00:11:05;99091.91;;;15.82;53.40
15678;BME280;7939;50.814;6.368;2023-03-30T00:13:32;99078.19;;;15.81;53.22
15678;BME280;7939;50.814;6.368;2023-03-30T00:15:59;99074.78;;;15.81;53.52
15678;BME280;7939;50.814;6.368;2023-03-30T00:18:26;99078.97;;;15.83;53.42
15678;BME280;7939;50.814;6.368;2023-03-30T00:20:53;99082.38;;;15.84;53.26
15678;BME280;7939;50.814;6.368;2023-03-30T00:23:20;99075.53;;;15.84;53.59
15678;BME280;7939;50.814;6.368;2023-03-30T00:25:47;99061.78;;;15.84;53.66
15678;BME280;7939;50.814;6.368;2023-03-30T00:28:16;99052.34;;;15.84;53.30
15678;BME280;7939;50.814;6.368;2023-03-30T00:30:42;99053.19;;;15.85;53.12
15678;BME280;7939;50.814;6.368;2023-03-30T00:33:09;99054.91;;;15.84;53.05
15678;BME280;7939;50.814;6.368;2023-03-30T00:35:36;99046.22;;;15.87;53.26
15678;BME280;7939;50.814;6.368;2023-03-30T00:38:02;99045.41;;;15.86;53.41
15678;BME280;7939;50.814;6.368;2023-03-30T00:40:31;99038.44;;;15.88;53.33
15678;BME280;7939;50.814;6.368;2023-03-30T00:42:59;99032.56;;;15.85;53.48
15678;BME280;7939;50.814;6.368;2023-03-30T00:45:28;99023.00;;;15.88;53.33
15678;BME280;7939;50.814;6.368;2023-03-30T00:47:59;99035.88;;;15.88;53.47
15678;BME280;7939;50.814;6.368;2023-03-30T00:50:31;99037.56;;;15.89;53.34
15678;BME280;7939;50.814;6.368;2023-03-30T00:53:04;99023.03;;;15.87;53.34
15678;BME280;7939;50.814;6.368;2023-03-30T00:55:34;99021.25;;;15.89;53.45
15678;BME280;7939;50.814;6.368;2023-03-30T00:58:03;99027.31;;;15.88;53.60
15678;BME280;7939;50.814;6.368;2023-03-30T01:00:33;99023.81;;;15.90;53.25
15678;BME280;7939;50.814;6.368;2023-03-30T01:03:05;99015.19;;;15.90;53.01
15678;BME280;7939;50.814;6.368;2023-03-30T01:05:35;99035.78;;;15.91;53.49
15678;BME280;7939;50.814;6.368;2023-03-30T01:08:04;99027.16;;;15.93;53.34
15678;BME280;7939;50.814;6.368;2023-03-30T01:10:32;99024.53;;;15.94;53.21
15678;BME280;7939;50.814;6.368;2023-03-30T01:12:58;99029.72;;;15.93;53.03
15678;BME280;7939;50.814;6.368;2023-03-30T01:15:26;99028.84;;;15.94;53.50
15678;BME280;7939;50.814;6.368;2023-03-30T01:18:05;99026.25;;;15.94;53.44
15678;BME280;7939;50.814;6.368;2023-03-30T01:21:17;99040.03;;;15.93;53.42
15678;BME280;7939;50.814;6.368;2023-03-30T01:26:49;99023.63;;;15.95;53.35
15678;BME280;7939;50.814;6.368;2023-03-30T01:29:33;99021.94;;;15.94;53.61
15678;BME280;7939;50.814;6.368;2023-03-30T01:35:44;99035.56;;;15.98;53.53
15678;BME280;7939;50.814;6.368;2023-03-30T01:41:32;99031.31;;;15.97;53.92
15678;BME280;7939;50.814;6.368;2023-03-30T01:44:07;99035.56;;;15.98;53.70
15678;BME280;7939;50.814;6.368;2023-03-30T01:46:41;99039.00;;;15.98;53.66
15678;BME280;7939;50.814;6.368;2023-03-30T01:49:14;99032.94;;;15.99;53.73
15678;BME280;7939;50.814;6.368;2023-03-30T01:51:48;99012.38;;;15.98;53.77
15678;BME280;7939;50.814;6.368;2023-03-30T01:54:18;99020.97;;;15.98;53.74
15678;BME280;7939;50.814;6.368;2023-03-30T01:56:52;99033.78;;;16.00;53.81
15678;BME280;7939;50.814;6.368;2023-03-30T01:59:24;99017.41;;;16.01;53.38
15678;BME280;7939;50.814;6.368;2023-03-30T02:01:53;99027.66;;;16.02;53.61
15678;BME280;7939;50.814;6.368;2023-03-30T02:04:25;99027.66;;;16.02;53.69
15678;BME280;7939;50.814;6.368;2023-03-30T02:06:57;99030.16;;;16.05;53.75
15678;BME280;7939;50.814;6.368;2023-03-30T02:09:25;99017.31;;;16.04;53.90
15678;BME280;7939;50.814;6.368;2023-03-30T02:11:54;99015.59;;;16.04;53.84
15678;BME280;7939;50.814;6.368;2023-03-30T02:14:24;98997.56;;;16.03;53.87
15678;BME280;7939;50.814;6.368;2023-03-30T02:16:55;98969.19;;;16.04;53.57
15678;BME280;7939;50.814;6.368;2023-03-30T02:19:23;98928.88;;;16.03;53.92
15678;BME280;7939;50.814;6.368;2023-03-30T02:21:50;98925.41;;;16.03;53.98
15678;BME280;7939;50.814;6.368;2023-03-30T02:24:20;98916.84;;;16.02;54.13
15678;BME280;7939;50.814;6.368;2023-03-30T02:26:50;98919.44;;;16.02;54.18
15678;BME280;7939;50.814;6.368;2023-03-30T02:29:20;98925.53;;;16.00;54.46
15678;BME280;7939;50.814;6.368;2023-03-30T02:31:49;98932.44;;;15.99;54.51
15678;BME280;7939;50.814;6.368;2023-03-30T02:34:26;98933.34;;;15.98;54.67
15678;BME280;7939;50.814;6.368;2023-03-30T02:37:17;98937.66;;;15.98;54.54
15678;BME280;7939;50.814;6.368;2023-03-30T02:39:56;98940.25;;;15.96;54.50
15678;BME280;7939;50.814;6.368;2023-03-30T02:42:43;98936.84;;;15.96;54.13
15678;BME280;7939;50.814;6.368;2023-03-30T02:45:19;98923.19;;;15.94;54.60
15678;BME280;7939;50.814;6.368;2023-03-30T02:48:01;98930.00;;;15.95;54.72
15678;BME280;7939;50.814;6.368;2023-03-30T02:50:34;98924.03;;;15.94;54.93
15678;BME280;7939;50.814;6.368;2023-03-30T02:53:08;98915.44;;;15.94;54.85
15678;BME280;7939;50.814;6.368;2023-03-30T02:55:43;98911.19;;;15.93;54.70
15678;BME280;7939;50.814;6.368;2023-03-30T02:58:15;98916.34;;;15.93;54.79
15678;BME280;7939;50.814;6.368;2023-03-30T03:00:49;98913.88;;;15.89;54.86
15678;BME280;7939;50.814;6.368;2023-03-30T03:03:19;98919.84;;;15.90;55.10
15678;BME280;7939;50.814;6.368;2023-03-30T03:05:48;98903.63;;;15.88;55.13
15678;BME280;7939;50.814;6.368;2023-03-30T03:08:19;98901.88;;;15.88;54.76
15678;BME280;7939;50.814;6.368;2023-03-30T03:10:48;98913.03;;;15.89;54.55
15678;BME280;7939;50.814;6.368;2023-03-30T03:13:16;98903.56;;;15.89;54.79
15678;BME280;7939;50.814;6.368;2023-03-30T03:15:44;98914.72;;;15.90;54.77
15678;BME280;7939;50.814;6.368;2023-03-30T03:18:15;98914.78;;;15.88;54.77
15678;BME280;7939;50.814;6.368;2023-03-30T03:20:42;98919.16;;;15.86;54.90
15678;BME280;7939;50.814;6.368;2023-03-30T03:23:09;98920.03;;;15.85;54.68
15678;BME280;7939;50.814;6.368;2023-03-30T03:25:35;98920.94;;;15.84;54.82
15678;BME280;7939;50.814;6.368;2023-03-30T03:28:02;98915.78;;;15.84;54.64
15678;BME280;7939;50.814;6.368;2023-03-30T03:30:29;98917.56;;;15.82;54.89
15678;BME280;7939;50.814;6.368;2023-03-30T03:32:55;98906.34;;;15.83;54.57
15678;BME280;7939;50.814;6.368;2023-03-30T03:35:23;98914.06;;;15.85;54.49
15678;BME280;7939;50.814;6.368;2023-03-30T03:37:51;98909.78;;;15.84;54.53
15678;BME280;7939;50.814;6.368;2023-03-30T03:40:18;98905.44;;;15.86;54.19
15678;BME280;7939;50.814;6.368;2023-03-30T03:42:44;98909.75;;;15.85;54.32
15678;BME280;7939;50.814;6.368;2023-03-30T03:45:11;98918.38;;;15.84;54.31
15678;BME280;7939;50.814;6.368;2023-03-30T03:47:37;98919.25;;;15.83;54.47
15678;BME280;7939;50.814;6.368;2023-03-30T03:50:05;98914.22;;;15.80;54.50
15678;BME280;7939;50.814;6.368;2023-03-30T03:52:35;98927.09;;;15.80;54.39
15678;BME280;7939;50.814;6.368;2023-03-30T03:55:02;98922.78;;;15.81;54.15
15678;BME280;7939;50.814;6.368;2023-03-30T03:57:29;98915.03;;;15.81;54.23
15678;BME280;7939;50.814;6.368;2023-03-30T03:59:55;98909.06;;;15.80;54.32
15678;BME280;7939;50.814;6.368;2023-03-30T04:02:24;98898.75;;;15.80;54.47
15678;BME280;7939;50.814;6.368;2023-03-30T04:04:51;98898.81;;;15.79;54.49
15678;BME280;7939;50.814;6.368;2023-03-30T04:07:17;98903.13;;;15.78;54.54
15678;BME280;7939;50.814;6.368;2023-03-30T04:09:46;98899.72;;;15.78;54.40
15678;BME280;7939;50.814;6.368;2023-03-30T04:12:12;98901.41;;;15.77;54.49
15678;BME280;7939;50.814;6.368;2023-03-30T04:14:39;98900.59;;;15.77;54.48
15678;BME280;7939;50.814;6.368;2023-03-30T04:17:05;98904.06;;;15.76;54.32
15678;BME280;7939;50.814;6.368;2023-03-30T04:19:32;98916.94;;;15.76;54.11
15678;BME280;7939;50.814;6.368;2023-03-30T04:22:00;98914.44;;;15.74;54.43
15678;BME280;7939;50.814;6.368;2023-03-30T04:24:30;98920.41;;;15.75;54.60
15678;BME280;7939;50.814;6.368;2023-03-30T04:27:01;98922.16;;;15.74;54.47
15678;BME280;7939;50.814;6.368;2023-03-30T04:29:28;98932.47;;;15.74;54.35
15678;BME280;7939;50.814;6.368;2023-03-30T04:31:55;98916.22;;;15.72;54.31
15678;BME280;7939;50.814;6.368;2023-03-30T04:34:26;98926.53;;;15.72;54.76
15678;BME280;7939;50.814;6.368;2023-03-30T04:36:55;98920.47;;;15.73;54.37
15678;BME280;7939;50.814;6.368;2023-03-30T04:39:22;98936.00;;;15.72;54.61
15678;BME280;7939;50.814;6.368;2023-03-30T04:41:49;98930.84;;;15.72;54.63
15678;BME280;7939;50.814;6.368;2023-03-30T04:44:19;98928.25;;;15.72;54.65
15678;BME280;7939;50.814;6.368;2023-03-30T04:46:46;98921.38;;;15.72;54.64
15678;BME280;7939;50.814;6.368;2023-03-30T04:49:13;98909.38;;;15.71;54.69
15678;BME280;7939;50.814;6.368;2023-03-30T04:51:39;98904.97;;;15.75;54.53
15678;BME280;7939;50.814;6.368;2023-03-30T04:54:07;98905.78;;;15.75;54.68
15678;BME280;7939;50.814;6.368;2023-03-30T04:56:34;98912.69;;;15.75;54.65
15678;BME280;7939;50.814;6.368;2023-03-30T04:59:00;98918.69;;;15.75;54.85
15678;BME280;7939;50.814;6.368;2023-03-30T05:01:28;98913.47;;;15.77;54.84
15678;BME280;7939;50.814;6.368;2023-03-30T05:03:55;98920.31;;;15.78;54.64
15678;BME280;7939;50.814;6.368;2023-03-30T05:06:21;98919.50;;;15.76;54.69
15678;BME280;7939;50.814;6.368;2023-03-30T05:08:48;98921.16;;;15.78;54.59
15678;BME280;7939;50.814;6.368;2023-03-30T05:11:15;98926.41;;;15.75;54.92
15678;BME280;7939;50.814;6.368;2023-03-30T05:13:42;98926.31;;;15.78;54.81
15678;BME280;7939;50.814;6.368;2023-03-30T05:16:08;98921.16;;;15.78;54.90
15678;BME280;7939;50.814;6.368;2023-03-30T05:18:36;98922.84;;;15.79;54.77
15678;BME280;7939;50.814;6.368;2023-03-30T05:21:04;98925.41;;;15.79;55.07
15678;BME280;7939;50.814;6.368;2023-03-30T05:23:31;98910.84;;;15.78;54.98
15678;BME280;7939;50.814;6.368;2023-03-30T05:25:57;98940.06;;;15.77;54.98
15678;BME280;7939;50.814;6.368;2023-03-30T05:28:24;98943.53;;;15.76;54.98
15678;BME280;7939;50.814;6.368;2023-03-30T05:30:54;98946.19;;;15.75;55.03
15678;BME280;7939;50.814;6.368;2023-03-30T05:33:21;98944.44;;;15.75;54.66
15678;BME280;7939;50.814;6.368;2023-03-30T05:35:50;98953.00;;;15.76;55.07
15678;BME280;7939;50.814;6.368;2023-03-30T05:38:17;98948.75;;;15.75;55.21
15678;BME280;7939;50.814;6.368;2023-03-30T05:40:43;98949.59;;;15.75;55.26
15678;BME280;7939;50.814;6.368;2023-03-30T05:43:10;98959.91;;;15.75;55.11
15678;BME280;7939;50.814;6.368;2023-03-30T05:45:37;98959.00;;;15.76;55.48
15678;BME280;7939;50.814;6.368;2023-03-30T05:48:04;98965.00;;;15.77;55.42
15678;BME280;7939;50.814;6.368;2023-03-30T05:50:31;98964.16;;;15.76;55.22
15678;BME280;7939;50.814;6.368;2023-03-30T05:52:59;98950.50;;;15.74;55.11
15678;BME280;7939;50.814;6.368;2023-03-30T05:55:26;98955.53;;;15.77;55.28
15678;BME280;7939;50.814;6.368;2023-03-30T05:57:53;98957.25;;;15.77;55.75
15678;BME280;7939;50.814;6.368;2023-03-30T06:00:21;98953.84;;;15.76;55.55
15678;BME280;7939;50.814;6.368;2023-03-30T06:02:48;98956.41;;;15.76;55.69
15678;BME280;7939;50.814;6.368;2023-03-30T06:05:16;98949.53;;;15.77;55.82
15678;BME280;7939;50.814;6.368;2023-03-30T06:07:42;98949.59;;;15.75;55.87
15678;BME280;7939;50.814;6.368;2023-03-30T06:10:11;98949.59;;;15.75;55.78
15678;BME280;7939;50.814;6.368;2023-03-30T06:12:38;98952.09;;;15.77;56.07
15678;BME280;7939;50.814;6.368;2023-03-30T06:15:05;98952.94;;;15.77;55.79
15678;BME280;7939;50.814;6.368;2023-03-30T06:17:33;98958.22;;;15.74;55.83
15678;BME280;7939;50.814;6.368;2023-03-30T06:20:00;98959.91;;;15.75;56.00
15678;BME280;7939;50.814;6.368;2023-03-30T06:22:27;98957.25;;;15.77;56.20
15678;BME280;7939;50.814;6.368;2023-03-30T06:24:53;98964.22;;;15.75;56.26
15678;BME280;7939;50.814;6.368;2023-03-30T06:27:21;98960.66;;;15.77;55.89
15678;BME280;7939;50.814;6.368;2023-03-30T06:29:48;98970.19;;;15.75;56.11
15678;BME280;7939;50.814;6.368;2023-03-30T06:32:15;98978.72;;;15.77;56.35
15678;BME280;7939;50.814;6.368;2023-03-30T06:34:42;98988.16;;;15.78;56.41
15678;BME280;7939;50.814;6.368;2023-03-30T06:37:08;98978.72;;;15.77;56.40
15678;BME280;7939;50.814;6.368;2023-03-30T06:39:35;98977.78;;;15.80;56.46
15678;BME280;7939;50.814;6.368;2023-03-30T06:42:02;98975.28;;;15.77;56.43
15678;BME280;7939;50.814;6.368;2023-03-30T06:44:31;98985.50;;;15.80;55.89
15678;BME280;7939;50.814;6.368;2023-03-30T06:46:59;98991.50;;;15.80;56.30
15678;BME280;7939;50.814;6.368;2023-03-30T06:49:26;98996.72;;;15.79;56.48
15678;BME280;7939;50.814;6.368;2023-03-30T06:51:55;98982.94;;;15.80;56.41
15678;BME280;7939;50.814;6.368;2023-03-30T06:54:22;98995.66;;;15.84;56.40
15678;BME280;7939;50.814;6.368;2023-03-30T06:56:48;98998.25;;;15.84;56.53
15678;BME280;7939;50.814;6.368;2023-03-30T06:59:18;98984.50;;;15.84;56.44
15678;BME280;7939;50.814;6.368;2023-03-30T07:01:46;98995.66;;;15.84;56.63
15678;BME280;7939;50.814;6.368;2023-03-30T07:04:12;98986.97;;;15.87;56.46
15678;BME280;7939;50.814;6.368;2023-03-30T07:06:40;98992.97;;;15.87;57.11
15678;BME280;7939;50.814;6.368;2023-03-30T07:09:06;98995.47;;;15.89;56.51
15678;BME280;7939;50.814;6.368;2023-03-30T07:11:33;98992.06;;;15.88;56.53
15678;BME280;7939;50.814;6.368;2023-03-30T07:14:00;98987.97;;;15.83;56.69
15678;BME280;7939;50.814;6.368;2023-03-30T07:16:27;98992.13;;;15.87;56.62
15678;BME280;7939;50.814;6.368;2023-03-30T07:18:55;99004.94;;;15.88;56.94
15678;BME280;7939;50.814;6.368;2023-03-30T07:21:21;99002.31;;;15.90;56.70
15678;BME280;7939;50.814;6.368;2023-03-30T07:23:48;99002.28;;;15.91;56.80
15678;BME280;7939;50.814;6.368;2023-03-30T07:26:16;99006.53;;;15.93;56.83
15678;BME280;7939;50.814;6.368;2023-03-30T07:28:43;98998.81;;;15.93;57.01
15678;BME280;7939;50.814;6.368;2023-03-30T07:31:11;99006.41;;;15.96;56.83
15678;BME280;7939;50.814;6.368;2023-03-30T07:33:38;98997.84;;;15.95;57.09
15678;BME280;7939;50.814;6.368;2023-03-30T07:36:07;99015.00;;;15.96;56.78
15678;BME280;7939;50.814;6.368;2023-03-30T07:38:33;98998.66;;;15.97;56.98
15678;BME280;7939;50.814;6.368;2023-03-30T07:41:05;99007.16;;;15.99;57.14
15678;BME280;7939;50.814;6.368;2023-03-30T07:43:32;99008.13;;;15.97;56.79
15678;BME280;7939;50.814;6.368;2023-03-30T07:45:59;99018.31;;;16.00;56.88
15678;BME280;7939;50.814;6.368;2023-03-30T07:48:25;99019.16;;;16.00;56.97
15678;BME280;7939;50.814;6.368;2023-03-30T07:50:58;99025.06;;;16.04;57.06
15678;BME280;7939;50.814;6.368;2023-03-30T07:53:26;99026.75;;;16.05;57.15
15678;BME280;7939;50.814;6.368;2023-03-30T07:55:53;99022.44;;;16.05;57.11
15678;BME280;7939;50.814;6.368;2023-03-30T07:58:20;99029.31;;;16.05;56.96
15678;BME280;7939;50.814;6.368;2023-03-30T08:00:46;99037.13;;;16.02;57.03
15678;BME280;7939;50.814;6.368;2023-03-30T08:03:13;99040.53;;;16.04;56.82
15678;BME280;7939;50.814;6.368;2023-03-30T08:05:40;99033.66;;;16.03;57.10
15678;BME280;7939;50.814;6.368;2023-03-30T08:08:06;99044.78;;;16.05;57.30
15678;BME280;7939;50.814;6.368;2023-03-30T08:10:34;99042.19;;;16.05;56.82
15678;BME280;7939;50.814;6.368;2023-03-30T08:13:01;99036.94;;;16.08;56.99
15678;BME280;7939;50.814;6.368;2023-03-30T08:15:27;99048.88;;;16.10;56.97
15678;BME280;7939;50.814;6.368;2023-03-30T08:17:54;99041.03;;;16.13;56.90
15678;BME280;7939;50.814;6.368;2023-03-30T08:20:22;99042.72;;;16.14;56.71
15678;BME280;7939;50.814;6.368;2023-03-30T08:22:50;99052.16;;;16.15;56.67
15678;BME280;7939;50.814;6.368;2023-03-30T08:25:16;99052.88;;;16.19;57.36
15678;BME280;7939;50.814;6.368;2023-03-30T08:27:44;99064.03;;;16.19;57.78
15678;BME280;7939;50.814;6.368;2023-03-30T08:30:12;99068.28;;;16.21;58.08
15678;BME280;7939;50.814;6.368;2023-03-30T08:32:40;99057.25;;;16.17;58.63
15678;BME280;7939;50.814;6.368;2023-03-30T08:35:08;99063.31;;;16.16;59.10
15678;BME280;7939;50.814;6.368;2023-03-30T08:37:35;99058.28;;;16.11;59.35
15678;BME280;7939;50.814;6.368;2023-03-30T08:40:02;99058.78;;;15.96;59.80
15678;BME280;7939;50.814;6.368;2023-03-30T08:42:45;99058.56;;;16.04;59.85
15678;BME280;7939;50.814;6.368;2023-03-30T08:45:18;99048.19;;;16.05;59.29
15678;BME280;7939;50.814;6.368;2023-03-30T08:47:47;99062.69;;;16.08;59.43
15678;BME280;7939;50.814;6.368;2023-03-30T08:50:16;99056.66;;;16.09;59.50
15678;BME280;7939;50.814;6.368;2023-03-30T08:52:44;99062.69;;;16.09;59.46
15678;BME280;7939;50.814;6.368;2023-03-30T08:55:20;99061.78;;;16.10;59.60
15678;BME280;7939;50.814;6.368;2023-03-30T08:57:53;99061.72;;;16.12;59.49
15678;BME280;7939;50.814;6.368;2023-03-30T09:00:27;99072.94;;;16.11;59.53
15678;BME280;7939;50.814;6.368;2023-03-30T09:03:02;99077.25;;;16.10;59.25
15678;BME280;7939;50.814;6.368;2023-03-30T09:05:37;99071.97;;;16.13;59.16
15678;BME280;7939;50.814;6.368;2023-03-30T09:08:12;99091.66;;;16.16;59.34
15678;BME280;7939;50.814;6.368;2023-03-30T09:10:42;99107.97;;;16.16;58.89
15678;BME280;7939;50.814;6.368;2023-03-30T09:13:15;99143.22;;;16.16;58.91
15678;BME280;7939;50.814;6.368;2023-03-30T09:15:48;99166.41;;;16.16;59.47
15678;BME280;7939;50.814;6.368;2023-03-30T09:18:20;99207.34;;;15.99;60.50
15678;BME280;7939;50.814;6.368;2023-03-30T09:20:51;99206.34;;;15.75;60.60
15678;BME280;7939;50.814;6.368;2023-03-30T09:23:18;99214.22;;;15.70;60.34
15678;BME280;7939;50.814;6.368;2023-03-30T09:25:49;99216.84;;;15.69;60.40
15678;BME280;7939;50.814;6.368;2023-03-30T09:28:23;99235.00;;;15.64;60.37
15678;BME280;7939;50.814;6.368;2023-03-30T09:30:56;99240.22;;;15.62;60.08
15678;BME280;7939;50.814;6.368;2023-03-30T09:33:28;99249.75;;;15.59;60.32
15678;BME280;7939;50.814;6.368;2023-03-30T09:36:09;99241.31;;;15.52;60.67
15678;BME280;7939;50.814;6.368;2023-03-30T09:38:39;99244.84;;;15.50;60.72
15678;BME280;7939;50.814;6.368;2023-03-30T09:41:19;99259.50;;;15.48;61.17
15678;BME280;7939;50.814;6.368;2023-03-30T09:43:51;99234.75;;;15.42;61.27
15678;BME280;7939;50.814;6.368;2023-03-30T09:46:18;99238.22;;;15.41;60.87
15678;BME280;7939;50.814;6.368;2023-03-30T09:48:46;99250.25;;;15.41;60.91
15678;BME280;7939;50.814;6.368;2023-03-30T09:51:15;99229.69;;;15.39;60.81
15678;BME280;7939;50.814;6.368;2023-03-30T09:53:44;99203.16;;;15.37;61.07
15678;BME280;7939;50.814;6.368;2023-03-30T09:56:18;99179.94;;;15.38;61.09
15678;BME280;7939;50.814;6.368;2023-03-30T09:58:45;99178.16;;;15.41;60.79
15678;BME280;7939;50.814;6.368;2023-03-30T10:01:15;99180.75;;;15.41;60.87
15678;BME280;7939;50.814;6.368;2023-03-30T10:03:44;99177.41;;;15.37;61.16
15678;BME280;7939;50.814;6.368;2023-03-30T10:06:15;99196.19;;;15.41;60.83
15678;BME280;7939;50.814;6.368;2023-03-30T10:08:43;99193.63;;;15.39;60.88
15678;BME280;7939;50.814;6.368;2023-03-30T10:11:18;99194.47;;;15.39;61.08
15678;BME280;7939;50.814;6.368;2023-03-30T10:13:48;99195.31;;;15.42;60.77
15678;BME280;7939;50.814;6.368;2023-03-30T10:16:22;99192.72;;;15.42;61.44
15678;BME280;7939;50.814;6.368;2023-03-30T10:18:53;99184.88;;;15.46;62.73
15678;BME280;7939;50.814;6.368;2023-03-30T10:21:22;99190.44;;;15.62;62.57
15678;BME280;7939;50.814;6.368;2023-03-30T10:23:58;99192.72;;;15.71;62.85
15678;BME280;7939;50.814;6.368;2023-03-30T10:26:28;99192.34;;;15.83;62.82
15678;BME280;7939;50.814;6.368;2023-03-30T10:28:58;99188.72;;;15.90;62.24
15678;BME280;7939;50.814;6.368;2023-03-30T10:31:32;99196.28;;;15.95;61.78
15678;BME280;7939;50.814;6.368;2023-03-30T10:34:02;99196.09;;;16.01;62.22
15678;BME280;7939;50.814;6.368;2023-03-30T10:36:32;99207.16;;;16.05;62.02
15678;BME280;7939;50.814;6.368;2023-03-30T10:39:04;99205.22;;;16.11;61.85
15678;BME280;7939;50.814;6.368;2023-03-30T10:41:32;99203.34;;;16.16;62.30
15678;BME280;7939;50.814;6.368;2023-03-30T10:44:09;99205.63;;;16.26;62.33
15678;BME280;7939;50.814;6.368;2023-03-30T10:46:42;99208.09;;;16.29;62.14
15678;BME280;7939;50.814;6.368;2023-03-30T10:49:15;99206.97;;;16.37;62.21
15678;BME280;7939;50.814;6.368;2023-03-30T10:51:55;99203.41;;;16.40;61.74
15678;BME280;7939;50.814;6.368;2023-03-30T10:54:29;99214.44;;;16.45;61.96
15678;BME280;7939;50.814;6.368;2023-03-30T10:57:16;99210.94;;;16.48;61.11
15678;BME280;7939;50.814;6.368;2023-03-30T11:00:03;99206.44;;;16.53;61.54
15678;BME280;7939;50.814;6.368;2023-03-30T11:02:50;99210.03;;;16.49;60.57
15678;BME280;7939;50.814;6.368;2023-03-30T11:05:21;99216.72;;;16.54;60.70
15678;BME280;7939;50.814;6.368;2023-03-30T11:07:53;99207.19;;;16.56;60.81
15678;BME280;7939;50.814;6.368;2023-03-30T11:10:25;99202.78;;;16.60;60.44
15678;BME280;7939;50.814;6.368;2023-03-30T11:12:58;99206.91;;;16.64;60.86
15678;BME280;7939;50.814;6.368;2023-03-30T11:15:30;99206.09;;;16.63;59.98
15678;BME280;7939;50.814;6.368;2023-03-30T11:18:04;99224.06;;;16.66;60.81
15678;BME280;7939;50.814;6.368;2023-03-30T11:20:39;99205.75;;;16.74;59.81
15678;BME280;7939;50.814;6.368;2023-03-30T11:23:13;99213.44;;;16.76;59.88
15678;BME280;7939;50.814;6.368;2023-03-30T11:25:51;99211.59;;;16.79;59.72
15678;BME280;7939;50.814;6.368;2023-03-30T11:28:34;99205.41;;;16.85;59.28
15678;BME280;7939;50.814;6.368;2023-03-30T11:31:07;99193.22;;;16.88;59.40
15678;BME280;7939;50.814;6.368;2023-03-30T11:33:43;99195.69;;;16.91;59.12
15678;BME280;7939;50.814;6.368;2023-03-30T11:36:13;99193.00;;;16.94;58.92
15678;BME280;7939;50.814;6.368;2023-03-30T11:38:45;99192.16;;;16.94;59.07
15678;BME280;7939;50.814;6.368;2023-03-30T11:41:18;99187.84;;;16.94;58.85
15678;BME280;7939;50.814;6.368;2023-03-30T11:43:47;99190.25;;;16.99;58.34
15678;BME280;7939;50.814;6.368;2023-03-30T11:46:23;99179.94;;;16.99;57.67
15678;BME280;7939;50.814;6.368;2023-03-30T11:49:10;99191.19;;;16.96;57.97
15678;BME280;7939;50.814;6.368;2023-03-30T11:51:46;99178.41;;;16.93;57.82
15678;BME280;7939;50.814;6.368;2023-03-30T11:54:36;99185.88;;;17.01;57.85
15678;BME280;7939;50.814;6.368;2023-03-30T11:57:12;99178.03;;;17.04;57.81
15678;BME280;7939;50.814;6.368;2023-03-30T11:59:45;99200.31;;;17.07;58.92
15678;BME280;7939;50.814;6.368;2023-03-30T12:02:22;99191.50;;;17.12;58.11
15678;BME280;7939;50.814;6.368;2023-03-30T12:04:56;99189.81;;;17.11;57.05
15678;BME280;7939;50.814;6.368;2023-03-30T12:07:31;99190.44;;;17.18;57.36
15678;BME280;7939;50.814;6.368;2023-03-30T12:10:09;99192.88;;;17.22;57.69
15678;BME280;7939;50.814;6.368;2023-03-30T12:12:40;99171.97;;;17.29;57.41
15678;BME280;7939;50.814;6.368;2023-03-30T12:15:17;99172.59;;;17.35;57.02
15678;BME280;7939;50.814;6.368;2023-03-30T12:17:49;99181.94;;;17.38;57.17
15678;BME280;7939;50.814;6.368;2023-03-30T12:20:31;99178.25;;;17.45;57.09
15678;BME280;7939;50.814;6.368;2023-03-30T12:23:08;99178.97;;;17.48;56.65
15678;BME280;7939;50.814;6.368;2023-03-30T12:25:53;99173.69;;;17.51;57.10
15678;BME280;7939;50.814;6.368;2023-03-30T12:28:47;99163.19;;;17.56;57.10
15678;BME280;7939;50.814;6.368;2023-03-30T12:31:14;99162.28;;;17.57;56.69
15678;BME280;7939;50.814;6.368;2023-03-30T12:33:46;99162.19;;;17.59;56.19
15678;BME280;7939;50.814;6.368;2023-03-30T12:36:30;99155.25;;;17.61;56.48
15678;BME280;7939;50.814;6.368;2023-03-30T12:39:00;99147.28;;;17.67;56.34
15678;BME280;7939;50.814;6.368;2023-03-30T12:41:37;99157.59;;;17.67;56.84
15678;BME280;7939;50.814;6.368;2023-03-30T12:44:20;99163.84;;;17.61;56.16
15678;BME280;7939;50.814;6.368;2023-03-30T12:47:02;99156.19;;;17.58;55.89
15678;BME280;7939;50.814;6.368;2023-03-30T12:49:45;99165.88;;;17.53;54.64
15678;BME280;7939;50.814;6.368;2023-03-30T12:52:26;99169.91;;;17.60;54.37
15678;BME280;7939;50.814;6.368;2023-03-30T12:55:04;99170.78;;;17.59;54.21
15678;BME280;7939;50.814;6.368;2023-03-30T12:57:48;99157.09;;;17.57;53.78
15678;BME280;7939;50.814;6.368;2023-03-30T13:00:41;99152.00;;;17.56;53.33
15678;BME280;7939;50.814;6.368;2023-03-30T13:03:25;99174.34;;;17.57;53.92
15678;BME280;7939;50.814;6.368;2023-03-30T13:05:59;99247.09;;;17.46;54.93
15678;BME280;7939;50.814;6.368;2023-03-30T13:08:31;99281.50;;;17.46;56.68
15678;BME280;7939;50.814;6.368;2023-03-30T13:11:11;99263.66;;;17.15;57.89
15678;BME280;7939;50.814;6.368;2023-03-30T13:13:47;99239.44;;;17.19;58.31
15678;BME280;7939;50.814;6.368;2023-03-30T13:16:45;99234.34;;;17.18;58.14
15678;BME280;7939;50.814;6.368;2023-03-30T13:19:20;99217.19;;;17.15;58.53
15678;BME280;7939;50.814;6.368;2023-03-30T13:21:55;99217.19;;;17.15;58.63
15678;BME280;7939;50.814;6.368;2023-03-30T13:24:35;99210.34;;;17.14;59.54
15678;BME280;7939;50.814;6.368;2023-03-30T13:27:30;99205.31;;;17.11;59.59
15678;BME280;7939;50.814;6.368;2023-03-30T13:29:59;99205.19;;;17.14;59.46
15678;BME280;7939;50.814;6.368;2023-03-30T13:32:37;99206.00;;;17.16;59.60
15678;BME280;7939;50.814;6.368;2023-03-30T13:35:28;99201.69;;;17.15;59.96
15678;BME280;7939;50.814;6.368;2023-03-30T13:38:32;99172.44;;;17.16;59.77
15678;BME280;7939;50.814;6.368;2023-03-30T13:41:11;99171.56;;;17.16;59.25